Flight Track Log - Related Links

Times and Time Zones

All times are in EDT time to prevent confusion due to time zone crossing. See the N1253W flight status page for this flight to view local times or setup timezone preferences in your user account.

Time Position Orientation Groundspeed Altitude Reporting Facility
EDT Latitude Longitude Course Direction KTS MPH feet Rate Location/Type
Mon 08:26:15 AM 33.8500 -84.3167 309° West 170 196 2,300  Level Atlanta TRACON
Mon 08:27:09 AM 33.8833 -84.3667 309° West 181 208 3,600 1,600 Climbing Atlanta TRACON
Mon 08:28:15 AM 33.9333 -84.3500 15° North 189 217 5,500 1,800 Climbing Atlanta TRACON
Mon 08:29:09 AM 33.9833 -84.3500 360° North 186 214 7,200 1,684 Climbing Atlanta TRACON
Mon 08:30:09 AM 34.0333 -84.3500 360° North 199 229 8,700 970 Climbing Atlanta TRACON
Mon 08:32:27 AM 34.1883 -84.3300 North 253 291 10,400 697 Climbing Atlanta Center
Mon 08:33:27 AM 34.2531 -84.3128 12° North 235 270 11,000 800 Climbing Atlanta Center
Mon 08:34:27 AM 34.3242 -84.2953 11° North 245 282 12,000 1,400 Climbing Atlanta Center
Mon 08:35:27 AM 34.3825 -84.2781 14° North 233 268 13,800 1,800 Climbing Atlanta Center
Mon 08:36:27 AM 34.4411 -84.2656 10° North 215 247 15,600 1,700 Climbing Atlanta Center
Mon 08:37:27 AM 34.4953 -84.2531 11° North 210 242 17,200 1,450 Climbing Atlanta Center
Mon 08:38:27 AM 34.5517 -84.2381 12° North 204 235 18,500 1,200 Climbing Atlanta Center
Mon 08:39:27 AM 34.6122 -84.2231 12° North 204 235 19,600 1,150 Climbing Atlanta Center
Mon 08:40:27 AM 34.6728 -84.2056 13° North 209 241 20,800 1,000 Climbing Atlanta Center
Mon 08:41:27 AM 34.7250 -84.1981 North 209 241 21,600 900 Climbing Atlanta Center
Mon 08:42:27 AM 34.7856 -84.1803 14° North 214 246 22,600 1,150 Climbing Atlanta Center
Mon 08:43:27 AM 34.8461 -84.1678 10° North 219 252 23,900 1,150 Climbing Atlanta Center
Mon 08:44:27 AM 34.9025 -84.1503 14° North 219 252 24,900 550 Climbing Atlanta Center
Mon 08:45:27 AM 34.9650 -84.1350 11° North 224 258 25,000 50 Climbing Atlanta Center
Mon 08:46:27 AM 35.0361 -84.1175 11° North 235 270 25,000  Level Atlanta Center
Mon 08:47:27 AM 35.1133 -84.0997 11° North 260 299 25,000  Level Atlanta Center
Mon 08:48:27 AM 35.1906 -84.0794 12° North 273 314 25,000  Level Atlanta Center
Mon 08:49:27 AM 35.2697 -84.0592 12° North 278 320 25,000  Level Atlanta Center
Mon 08:50:27 AM 35.3469 -84.0389 12° North 278 320 25,000  Level Atlanta Center
Mon 08:51:27 AM 35.4261 -84.0183 12° North 278 320 25,000  Level Atlanta Center
Mon 08:52:27 AM 35.5056 -83.9981 12° North 278 320 25,000  Level Atlanta Center
Mon 08:53:27 AM 35.5847 -83.9775 12° North 278 320 25,000  Level Atlanta Center
Mon 08:54:27 AM 35.6639 -83.9569 12° North 278 320 25,000  Level Atlanta Center
Mon 08:55:27 AM 35.7433 -83.9364 12° North 278 320 25,000  Level Atlanta Center
Mon 08:56:27 AM 35.8225 -83.9158 12° North 278 320 25,000  Level Atlanta Center
Mon 08:57:27 AM 35.9039 -83.8978 10° North 278 320 25,000  Level Atlanta Center
Mon 08:58:27 AM 35.9811 -83.8822 North 278 320 25,000  Level Atlanta Center
Mon 09:00:45 AM 36.1725 -83.8450 North 286 329 25,000  Level Indianapolis Center
Mon 09:01:46 AM 36.2503 -83.8136 18° North 294 338 25,000  Level Indianapolis Center
Mon 09:02:48 AM 36.3275 -83.7819 18° North 294 338 25,000  Level Indianapolis Center
Mon 09:03:50 AM 36.4053 -83.7503 18° North 294 338 25,000  Level Indianapolis Center
Mon 09:04:52 AM 36.4828 -83.7175 19° North 295 339 25,000  Level Indianapolis Center
Mon 09:05:53 AM 36.5697 -83.6822 18° North 298 343 25,000  Level Indianapolis Center
Mon 09:06:55 AM 36.6478 -83.6508 18° North 294 338 25,000  Level Indianapolis Center
Mon 09:07:57 AM 36.7256 -83.6167 19° North 293 337 25,000  Level Indianapolis Center
Mon 09:08:58 AM 36.8033 -83.5853 18° North 293 337 25,000  Level Indianapolis Center
Mon 09:10:00 AM 36.8808 -83.5519 19° North 292 336 25,000  Level Indianapolis Center
Mon 09:11:02 AM 36.9586 -83.5192 19° North 293 337 25,000  Level Indianapolis Center
Mon 09:12:04 AM 37.0486 -83.4817 18° North 291 335 25,000  Level Indianapolis Center
Mon 09:13:05 AM 37.1267 -83.4483 19° North 295 339 25,000  Level Indianapolis Center
Mon 09:14:07 AM 37.2033 -83.4153 19° North 290 334 25,000  Level Indianapolis Center
Mon 09:15:09 AM 37.2803 -83.3822 19° North 290 334 25,000  Level Indianapolis Center
Mon 09:16:11 AM 37.3583 -83.3492 19° North 294 338 25,000  Level Indianapolis Center
Mon 09:17:13 AM 37.4344 -83.3161 19° North 290 334 25,000  Level Indianapolis Center
Mon 09:18:15 AM 37.5114 -83.2831 19° North 292 336 25,000  Level Indianapolis Center
Mon 09:19:16 AM 37.6014 -83.2444 19° North 291 335 25,000  Level Indianapolis Center
Mon 09:20:18 AM 37.6783 -83.2117 19° North 291 335 25,000  Level Indianapolis Center
Mon 09:21:20 AM 37.7544 -83.1781 19° North 290 334 25,000  Level Indianapolis Center
Mon 09:22:22 AM 37.8317 -83.1439 19° North 292 336 25,000  Level Indianapolis Center
Mon 09:23:24 AM 37.9078 -83.1111 19° North 290 334 25,000  Level Indianapolis Center
Mon 09:24:26 AM 37.9850 -83.0789 18° North 290 334 25,000  Level Indianapolis Center
Mon 09:25:28 AM 38.0750 -83.0394 19° North 293 337 25,000  Level Indianapolis Center
Mon 09:26:30 AM 38.1519 -83.0044 20° North 294 338 25,000  Level Indianapolis Center
Mon 09:27:32 AM 38.2300 -82.9722 18° North 295 339 25,000 -387 Level Indianapolis Center
Mon 09:28:34 AM 38.3094 -82.9356 20° North 302 348 24,200 -677 Descending Indianapolis Center
Mon 09:29:36 AM 38.3928 -82.8994 19° North 313 360 23,600 -1,065 Descending Indianapolis Center
Mon 09:30:38 AM 38.4806 -82.8614 19° North 329 379 22,000 -1,597 Descending Indianapolis Center
Mon 09:31:40 AM 38.5872 -82.8128 20° North 344 396 20,300 -1,452 Descending Indianapolis Center
Mon 09:32:42 AM 38.6606 -82.7803 19° North 338 389 19,000 -1,452 Descending Indianapolis Center
Mon 09:33:44 AM 38.7633 -82.7353 19° North 324 373 17,300 -1,548 Descending Indianapolis Center
Mon 09:34:46 AM 38.8472 -82.6992 19° North 319 367 15,800 -1,452 Descending Indianapolis Center
Mon 09:35:48 AM 38.9306 -82.6619 19° North 317 365 14,300 -1,355 Descending Indianapolis Center
Mon 09:36:50 AM 39.0119 -82.6247 20° North 311 358 13,000 -726 Descending Indianapolis Center
Mon 09:37:52 AM 39.0892 -82.5894 20° North 297 342 12,800 -629 Descending Indianapolis Center
Mon 09:38:54 AM 39.1672 -82.6014 353° North 292 336 11,700 -1,161 Descending Indianapolis Center
Mon 09:39:56 AM 39.2508 -82.6419 339° North 297 342 10,400 -1,244 Descending Indianapolis Center
Mon 09:40:16 AM 39.2867 -82.6625 336° Northwest 301 346 10,000 -1,071 Descending Indianapolis Center
Mon 09:40:52 AM 39.3269 -82.6831 338° Northwest 300 345 9,400 -1,113 Descending Indianapolis Center
Mon 09:41:53 AM 39.4039 -82.7239 338° Northwest 272 313 8,200 -689 Descending Indianapolis Center
Mon 09:42:54 AM 39.4767 -82.7617 338° Northwest 277 319 8,000 -98 Descending Indianapolis Center
Mon 09:43:55 AM 39.5475 -82.7964 339° North 274 315 8,000 -344 Level Indianapolis Center
Mon 09:44:56 AM 39.6183 -82.8342 338° Northwest 272 313 7,300 -836 Descending Indianapolis Center
Mon 09:45:57 AM 39.6872 -82.8689 339° North 269 310 6,300 -582 Descending Indianapolis Center
Mon 09:47:10 AM 39.7642 -82.9083 338° Northwest 264 304 6,000 -703 Descending Indianapolis Center
Mon 09:48:05 AM 39.8328 -82.9453 338° Northwest 262 302 4,800 -1,241 Descending Indianapolis Center
Mon 09:49:06 AM 39.9014 -82.9803 339° North 261 300 3,600 -824 Descending Indianapolis Center
Mon 09:50:16 AM 39.9769 -83.0186 339° North 258 297 3,000 -496 Descending Indianapolis Center
Mon 09:51:07 AM 40.0267 -83.0492 335° Northwest 228 262 2,600 -482 Descending Indianapolis Center
Mon 09:52:08 AM 40.0478 -83.1061 296° West 168 193 2,100 -639 Descending Indianapolis Center
Mon 09:53:09 AM 40.0753 -83.1011 North 111 128 1,300 -441 Descending Indianapolis Center
Mon 09:54:24 AM 40.0767 -83.0553 88° East 140 161 1,100 -160 Descending Indianapolis Center

Login

Don't have an account? Register now (free) for customized features, flight alerts, and more!